sensor_id;sensor_type;location;lat;lon;timestamp;P1;durP1;ratioP1;P2;durP2;ratioP2
78013;SDS011;67222;50.182;8.734;2023-03-19T06:30:42;8.43;;;4.88;;
78013;SDS011;67222;50.182;8.734;2023-03-19T06:33:07;7.97;;;4.50;;
78013;SDS011;67222;50.182;8.734;2023-03-19T06:35:33;6.65;;;4.30;;
78013;SDS011;67222;50.182;8.734;2023-03-19T06:37:58;8.43;;;4.30;;
78013;SDS011;67222;50.182;8.734;2023-03-19T06:40:23;8.63;;;4.97;;
78013;SDS011;67222;50.182;8.734;2023-03-19T06:42:49;8.50;;;4.57;;
78013;SDS011;67222;50.182;8.734;2023-03-19T06:45:15;9.30;;;4.22;;
78013;SDS011;67222;50.182;8.734;2023-03-19T06:47:42;8.73;;;5.03;;
78013;SDS011;67222;50.182;8.734;2023-03-19T06:50:08;9.53;;;5.67;;
78013;SDS011;67222;50.182;8.734;2023-03-19T06:52:35;12.43;;;5.28;;
78013;SDS011;67222;50.182;8.734;2023-03-19T06:55:00;9.45;;;4.95;;
78013;SDS011;67222;50.182;8.734;2023-03-19T06:57:26;7.63;;;5.10;;
78013;SDS011;67222;50.182;8.734;2023-03-19T06:59:51;8.63;;;5.38;;
78013;SDS011;67222;50.182;8.734;2023-03-19T07:02:17;8.38;;;5.40;;
78013;SDS011;67222;50.182;8.734;2023-03-19T07:04:42;9.88;;;5.82;;
78013;SDS011;67222;50.182;8.734;2023-03-19T07:07:07;12.50;;;6.00;;
78013;SDS011;67222;50.182;8.734;2023-03-19T07:09:33;9.07;;;5.77;;
78013;SDS011;67222;50.182;8.734;2023-03-19T07:11:58;10.57;;;5.63;;
78013;SDS011;67222;50.182;8.734;2023-03-19T07:14:23;9.90;;;5.93;;
78013;SDS011;67222;50.182;8.734;2023-03-19T07:16:49;11.32;;;5.85;;
78013;SDS011;67222;50.182;8.734;2023-03-19T07:19:14;8.40;;;5.63;;
78013;SDS011;67222;50.182;8.734;2023-03-19T07:21:40;9.73;;;5.80;;
78013;SDS011;67222;50.182;8.734;2023-03-19T07:24:05;11.32;;;6.00;;
78013;SDS011;67222;50.182;8.734;2023-03-19T07:26:31;10.10;;;5.53;;
78013;SDS011;67222;50.182;8.734;2023-03-19T07:28:56;9.73;;;5.55;;
78013;SDS011;67222;50.182;8.734;2023-03-19T07:31:21;9.30;;;5.37;;
78013;SDS011;67222;50.182;8.734;2023-03-19T07:33:47;8.68;;;5.55;;
78013;SDS011;67222;50.182;8.734;2023-03-19T07:36:12;10.00;;;6.83;;
78013;SDS011;67222;50.182;8.734;2023-03-19T07:38:37;9.47;;;6.20;;
78013;SDS011;67222;50.182;8.734;2023-03-19T07:41:03;7.57;;;5.50;;
78013;SDS011;67222;50.182;8.734;2023-03-19T07:43:29;13.48;;;6.22;;
78013;SDS011;67222;50.182;8.734;2023-03-19T07:45:55;9.85;;;5.57;;
78013;SDS011;67222;50.182;8.734;2023-03-19T07:48:20;9.07;;;6.00;;
78013;SDS011;67222;50.182;8.734;2023-03-19T07:50:46;9.40;;;5.70;;
78013;SDS011;67222;50.182;8.734;2023-03-19T07:53:11;9.05;;;5.57;;
78013;SDS011;67222;50.182;8.734;2023-03-19T07:55:36;8.23;;;5.57;;
78013;SDS011;67222;50.182;8.734;2023-03-19T07:58:02;7.30;;;4.25;;
78013;SDS011;67222;50.182;8.734;2023-03-19T08:00:27;8.05;;;4.22;;
78013;SDS011;67222;50.182;8.734;2023-03-19T08:02:52;6.07;;;4.20;;
78013;SDS011;67222;50.182;8.734;2023-03-19T08:05:18;8.33;;;4.20;;
78013;SDS011;67222;50.182;8.734;2023-03-19T08:07:43;5.57;;;3.80;;
78013;SDS011;67222;50.182;8.734;2023-03-19T08:10:09;6.45;;;3.65;;
78013;SDS011;67222;50.182;8.734;2023-03-19T08:12:35;7.00;;;3.30;;
78013;SDS011;67222;50.182;8.734;2023-03-19T08:15:05;6.28;;;3.67;;
78013;SDS011;67222;50.182;8.734;2023-03-19T08:17:32;7.05;;;3.63;;
78013;SDS011;67222;50.182;8.734;2023-03-19T08:20:20;5.93;;;3.58;;
78013;SDS011;67222;50.182;8.734;2023-03-19T08:22:48;7.18;;;3.78;;
78013;SDS011;67222;50.182;8.734;2023-03-19T08:25:13;6.10;;;4.05;;
78013;SDS011;67222;50.182;8.734;2023-03-19T08:27:39;7.45;;;3.55;;
78013;SDS011;67222;50.182;8.734;2023-03-19T08:30:06;6.88;;;3.90;;
78013;SDS011;67222;50.182;8.734;2023-03-19T08:32:32;6.80;;;3.53;;
78013;SDS011;67222;50.182;8.734;2023-03-19T08:34:57;6.80;;;3.83;;
78013;SDS011;67222;50.182;8.734;2023-03-19T08:37:23;6.00;;;3.88;;
78013;SDS011;67222;50.182;8.734;2023-03-19T08:39:49;7.47;;;3.58;;
78013;SDS011;67222;50.182;8.734;2023-03-19T08:42:16;5.00;;;3.20;;
78013;SDS011;67222;50.182;8.734;2023-03-19T08:44:41;5.97;;;3.40;;
78013;SDS011;67222;50.182;8.734;2023-03-19T08:47:07;5.93;;;3.60;;
78013;SDS011;67222;50.182;8.734;2023-03-19T08:49:32;7.45;;;3.50;;
78013;SDS011;67222;50.182;8.734;2023-03-19T08:51:57;7.43;;;3.63;;
78013;SDS011;67222;50.182;8.734;2023-03-19T08:54:23;7.73;;;3.60;;
78013;SDS011;67222;50.182;8.734;2023-03-19T08:56:48;8.33;;;3.40;;
78013;SDS011;67222;50.182;8.734;2023-03-19T08:59:13;7.23;;;3.43;;
78013;SDS011;67222;50.182;8.734;2023-03-19T09:01:39;6.35;;;4.00;;
78013;SDS011;67222;50.182;8.734;2023-03-19T09:04:04;7.97;;;3.77;;
78013;SDS011;67222;50.182;8.734;2023-03-19T09:06:30;5.85;;;3.42;;
78013;SDS011;67222;50.182;8.734;2023-03-19T09:08:55;6.23;;;3.43;;
78013;SDS011;67222;50.182;8.734;2023-03-19T09:11:20;7.38;;;3.90;;
78013;SDS011;67222;50.182;8.734;2023-03-19T09:13:47;6.45;;;4.28;;
78013;SDS011;67222;50.182;8.734;2023-03-19T09:16:12;3.75;;;2.80;;
78013;SDS011;67222;50.182;8.734;2023-03-19T09:18:38;6.32;;;2.80;;
78013;SDS011;67222;50.182;8.734;2023-03-19T09:21:03;7.40;;;3.00;;
78013;SDS011;67222;50.182;8.734;2023-03-19T09:23:29;5.28;;;3.03;;
78013;SDS011;67222;50.182;8.734;2023-03-19T09:25:54;6.18;;;3.30;;
78013;SDS011;67222;50.182;8.734;2023-03-19T09:28:20;6.50;;;3.38;;
78013;SDS011;67222;50.182;8.734;2023-03-19T09:30:46;8.25;;;3.22;;
78013;SDS011;67222;50.182;8.734;2023-03-19T09:33:12;5.53;;;3.17;;
78013;SDS011;67222;50.182;8.734;2023-03-19T09:35:38;6.47;;;3.03;;
78013;SDS011;67222;50.182;8.734;2023-03-19T09:38:03;4.53;;;2.45;;
78013;SDS011;67222;50.182;8.734;2023-03-19T09:40:43;4.28;;;2.72;;
78013;SDS011;67222;50.182;8.734;2023-03-19T09:46:10;4.30;;;2.45;;
78013;SDS011;67222;50.182;8.734;2023-03-19T09:51:12;5.60;;;2.80;;
78013;SDS011;67222;50.182;8.734;2023-03-19T09:53:44;5.63;;;2.80;;
78013;SDS011;67222;50.182;8.734;2023-03-19T09:56:17;5.00;;;2.25;;
78013;SDS011;67222;50.182;8.734;2023-03-19T09:58:43;3.88;;;2.03;;
78013;SDS011;67222;50.182;8.734;2023-03-19T10:01:15;5.22;;;2.20;;
78013;SDS011;67222;50.182;8.734;2023-03-19T10:06:32;4.68;;;2.28;;
78013;SDS011;67222;50.182;8.734;2023-03-19T10:12:41;4.10;;;2.35;;
78013;SDS011;67222;50.182;8.734;2023-03-19T10:17:57;6.40;;;3.15;;
78013;SDS011;67222;50.182;8.734;2023-03-19T10:23:41;4.82;;;2.70;;
78013;SDS011;67222;50.182;8.734;2023-03-19T10:26:30;4.15;;;2.40;;
78013;SDS011;67222;50.182;8.734;2023-03-19T10:29:09;6.20;;;2.40;;
78013;SDS011;67222;50.182;8.734;2023-03-19T10:31:46;4.05;;;2.22;;
78013;SDS011;67222;50.182;8.734;2023-03-19T10:36:45;4.43;;;2.22;;
78013;SDS011;67222;50.182;8.734;2023-03-19T10:39:14;4.10;;;1.90;;
78013;SDS011;67222;50.182;8.734;2023-03-19T10:44:32;3.58;;;2.33;;
78013;SDS011;67222;50.182;8.734;2023-03-19T10:47:11;4.82;;;1.80;;
78013;SDS011;67222;50.182;8.734;2023-03-19T10:49:38;3.75;;;2.00;;
78013;SDS011;67222;50.182;8.734;2023-03-19T10:52:05;4.05;;;1.60;;
78013;SDS011;67222;50.182;8.734;2023-03-19T10:54:41;3.67;;;1.85;;
78013;SDS011;67222;50.182;8.734;2023-03-19T10:57:19;4.65;;;1.73;;
78013;SDS011;67222;50.182;8.734;2023-03-19T10:59:55;3.10;;;1.80;;
78013;SDS011;67222;50.182;8.734;2023-03-19T11:02:28;5.28;;;2.53;;
78013;SDS011;67222;50.182;8.734;2023-03-19T11:05:05;5.18;;;2.00;;
78013;SDS011;67222;50.182;8.734;2023-03-19T11:08:34;4.45;;;2.33;;
78013;SDS011;67222;50.182;8.734;2023-03-19T11:10:45;4.32;;;1.80;;
78013;SDS011;67222;50.182;8.734;2023-03-19T11:13:32;3.92;;;1.85;;
78013;SDS011;67222;50.182;8.734;2023-03-19T11:15:59;5.18;;;2.17;;
78013;SDS011;67222;50.182;8.734;2023-03-19T11:18:29;5.22;;;1.95;;
78013;SDS011;67222;50.182;8.734;2023-03-19T11:21:13;4.32;;;2.10;;
78013;SDS011;67222;50.182;8.734;2023-03-19T11:23:52;2.97;;;1.70;;
78013;SDS011;67222;50.182;8.734;2023-03-19T11:26:23;3.72;;;1.60;;
78013;SDS011;67222;50.182;8.734;2023-03-19T11:28:52;3.15;;;1.30;;
78013;SDS011;67222;50.182;8.734;2023-03-19T11:37:10;4.22;;;1.73;;
78013;SDS011;67222;50.182;8.734;2023-03-19T11:50:46;4.65;;;2.40;;
78013;SDS011;67222;50.182;8.734;2023-03-19T11:53:39;3.45;;;2.22;;
78013;SDS011;67222;50.182;8.734;2023-03-19T11:59:12;4.68;;;2.60;;
78013;SDS011;67222;50.182;8.734;2023-03-19T12:21:18;4.43;;;2.30;;
78013;SDS011;67222;50.182;8.734;2023-03-19T12:32:02;3.88;;;2.58;;
78013;SDS011;67222;50.182;8.734;2023-03-19T12:34:33;4.32;;;2.50;;
78013;SDS011;67222;50.182;8.734;2023-03-19T12:40:04;5.03;;;2.70;;
78013;SDS011;67222;50.182;8.734;2023-03-19T12:42:49;4.05;;;2.60;;
78013;SDS011;67222;50.182;8.734;2023-03-19T12:48:01;5.95;;;2.90;;
78013;SDS011;67222;50.182;8.734;2023-03-19T12:50:58;5.57;;;2.85;;
78013;SDS011;67222;50.182;8.734;2023-03-19T12:53:48;5.45;;;3.20;;
78013;SDS011;67222;50.182;8.734;2023-03-19T12:56:22;4.03;;;2.13;;
78013;SDS011;67222;50.182;8.734;2023-03-19T13:01:36;4.18;;;2.78;;
78013;SDS011;67222;50.182;8.734;2023-03-19T13:04:10;11.80;;;4.95;;
78013;SDS011;67222;50.182;8.734;2023-03-19T13:07:02;9.18;;;4.90;;
78013;SDS011;67222;50.182;8.734;2023-03-19T13:12:12;5.78;;;3.22;;
78013;SDS011;67222;50.182;8.734;2023-03-19T13:14:47;6.72;;;2.15;;
78013;SDS011;67222;50.182;8.734;2023-03-19T13:19:48;4.40;;;2.33;;
78013;SDS011;67222;50.182;8.734;2023-03-19T13:22:18;4.72;;;2.78;;
78013;SDS011;67222;50.182;8.734;2023-03-19T13:24:46;4.47;;;2.80;;
78013;SDS011;67222;50.182;8.734;2023-03-19T13:27:19;4.82;;;2.40;;
78013;SDS011;67222;50.182;8.734;2023-03-19T13:30:01;4.90;;;2.10;;
78013;SDS011;67222;50.182;8.734;2023-03-19T13:32:49;3.95;;;1.77;;
78013;SDS011;67222;50.182;8.734;2023-03-19T13:35:26;4.93;;;1.70;;
78013;SDS011;67222;50.182;8.734;2023-03-19T13:37:58;3.80;;;1.65;;
78013;SDS011;67222;50.182;8.734;2023-03-19T13:43:19;3.97;;;1.40;;
78013;SDS011;67222;50.182;8.734;2023-03-19T13:45:50;3.13;;;1.50;;
78013;SDS011;67222;50.182;8.734;2023-03-19T13:56:19;1.48;;;0.80;;
78013;SDS011;67222;50.182;8.734;2023-03-19T14:03:57;3.00;;;1.00;;
78013;SDS011;67222;50.182;8.734;2023-03-19T14:12:07;2.85;;;0.98;;
78013;SDS011;67222;50.182;8.734;2023-03-19T14:14:33;2.05;;;1.10;;
78013;SDS011;67222;50.182;8.734;2023-03-19T14:17:04;1.48;;;0.77;;
78013;SDS011;67222;50.182;8.734;2023-03-19T14:19:51;3.75;;;1.67;;
78013;SDS011;67222;50.182;8.734;2023-03-19T14:22:30;3.38;;;1.17;;
78013;SDS011;67222;50.182;8.734;2023-03-19T14:27:43;3.42;;;2.10;;
78013;SDS011;67222;50.182;8.734;2023-03-19T14:33:05;2.00;;;0.93;;
78013;SDS011;67222;50.182;8.734;2023-03-19T14:35:40;1.48;;;0.65;;
78013;SDS011;67222;50.182;8.734;2023-03-19T14:40:58;1.67;;;0.85;;
78013;SDS011;67222;50.182;8.734;2023-03-19T14:46:22;1.58;;;0.80;;
78013;SDS011;67222;50.182;8.734;2023-03-19T14:57:05;1.83;;;0.60;;
78013;SDS011;67222;50.182;8.734;2023-03-19T14:59:35;1.33;;;0.73;;
78013;SDS011;67222;50.182;8.734;2023-03-19T15:02:03;1.65;;;0.80;;
78013;SDS011;67222;50.182;8.734;2023-03-19T15:04:45;2.05;;;0.88;;
78013;SDS011;67222;50.182;8.734;2023-03-19T15:07:16;2.22;;;0.77;;
78013;SDS011;67222;50.182;8.734;2023-03-19T15:09:45;1.15;;;0.63;;
78013;SDS011;67222;50.182;8.734;2023-03-19T15:17:26;1.55;;;0.82;;
78013;SDS011;67222;50.182;8.734;2023-03-19T15:19:54;1.48;;;0.90;;
78013;SDS011;67222;50.182;8.734;2023-03-19T15:22:26;2.90;;;1.02;;
78013;SDS011;67222;50.182;8.734;2023-03-19T15:25:07;1.85;;;0.60;;
78013;SDS011;67222;50.182;8.734;2023-03-19T15:27:35;2.00;;;0.65;;
78013;SDS011;67222;50.182;8.734;2023-03-19T15:30:01;1.65;;;0.90;;
78013;SDS011;67222;50.182;8.734;2023-03-19T15:32:34;1.73;;;0.73;;
78013;SDS011;67222;50.182;8.734;2023-03-19T15:35:01;3.70;;;1.00;;
78013;SDS011;67222;50.182;8.734;2023-03-19T15:37:27;2.30;;;0.93;;
78013;SDS011;67222;50.182;8.734;2023-03-19T15:39:56;2.08;;;0.93;;
78013;SDS011;67222;50.182;8.734;2023-03-19T15:45:24;2.22;;;0.98;;
78013;SDS011;67222;50.182;8.734;2023-03-19T15:47:46;3.35;;;1.20;;
78013;SDS011;67222;50.182;8.734;2023-03-19T15:50:40;1.95;;;1.10;;
78013;SDS011;67222;50.182;8.734;2023-03-19T15:53:10;3.10;;;1.02;;
78013;SDS011;67222;50.182;8.734;2023-03-19T15:55:39;1.80;;;1.30;;
78013;SDS011;67222;50.182;8.734;2023-03-19T15:58:06;3.55;;;1.13;;
78013;SDS011;67222;50.182;8.734;2023-03-19T16:00:38;3.45;;;1.25;;
78013;SDS011;67222;50.182;8.734;2023-03-19T16:03:05;2.17;;;1.10;;
78013;SDS011;67222;50.182;8.734;2023-03-19T16:05:35;1.55;;;0.82;;
78013;SDS011;67222;50.182;8.734;2023-03-19T16:08:01;2.15;;;0.90;;
78013;SDS011;67222;50.182;8.734;2023-03-19T16:10:36;2.80;;;1.00;;
78013;SDS011;67222;50.182;8.734;2023-03-19T16:15:53;2.58;;;1.08;;
78013;SDS011;67222;50.182;8.734;2023-03-19T16:18:21;2.17;;;1.10;;
78013;SDS011;67222;50.182;8.734;2023-03-19T16:23:50;2.00;;;1.00;;
78013;SDS011;67222;50.182;8.734;2023-03-19T16:26:29;1.90;;;0.90;;
78013;SDS011;67222;50.182;8.734;2023-03-19T16:31:49;3.47;;;1.02;;
78013;SDS011;67222;50.182;8.734;2023-03-19T16:34:20;1.55;;;0.60;;
78013;SDS011;67222;50.182;8.734;2023-03-19T16:36:48;1.30;;;0.63;;
78013;SDS011;67222;50.182;8.734;2023-03-19T16:44:41;1.35;;;0.50;;
78013;SDS011;67222;50.182;8.734;2023-03-19T16:47:11;1.58;;;0.40;;
78013;SDS011;67222;50.182;8.734;2023-03-19T16:49:39;0.93;;;0.43;;
78013;SDS011;67222;50.182;8.734;2023-03-19T16:52:05;1.00;;;0.75;;
78013;SDS011;67222;50.182;8.734;2023-03-19T16:54:35;1.02;;;0.40;;
78013;SDS011;67222;50.182;8.734;2023-03-19T16:57:01;1.02;;;0.50;;
78013;SDS011;67222;50.182;8.734;2023-03-19T16:59:27;1.70;;;0.50;;
78013;SDS011;67222;50.182;8.734;2023-03-19T17:01:53;1.92;;;0.55;;
78013;SDS011;67222;50.182;8.734;2023-03-19T17:04:18;1.00;;;0.40;;
78013;SDS011;67222;50.182;8.734;2023-03-19T17:06:44;1.00;;;0.50;;
78013;SDS011;67222;50.182;8.734;2023-03-19T17:09:09;2.33;;;0.75;;
78013;SDS011;67222;50.182;8.734;2023-03-19T17:11:36;1.60;;;0.75;;
78013;SDS011;67222;50.182;8.734;2023-03-19T17:14:04;2.35;;;0.60;;
78013;SDS011;67222;50.182;8.734;2023-03-19T17:16:32;1.27;;;0.60;;
78013;SDS011;67222;50.182;8.734;2023-03-19T17:18:58;1.50;;;0.80;;
78013;SDS011;67222;50.182;8.734;2023-03-19T17:21:24;2.70;;;0.90;;
78013;SDS011;67222;50.182;8.734;2023-03-19T17:23:53;1.90;;;0.68;;
78013;SDS011;67222;50.182;8.734;2023-03-19T17:26:23;1.67;;;0.68;;
78013;SDS011;67222;50.182;8.734;2023-03-19T17:28:50;1.77;;;0.77;;
78013;SDS011;67222;50.182;8.734;2023-03-19T17:31:24;2.13;;;0.68;;
78013;SDS011;67222;50.182;8.734;2023-03-19T17:33:55;1.95;;;0.90;;
78013;SDS011;67222;50.182;8.734;2023-03-19T17:36:24;2.70;;;0.90;;
78013;SDS011;67222;50.182;8.734;2023-03-19T17:38:50;2.85;;;1.00;;
78013;SDS011;67222;50.182;8.734;2023-03-19T17:41:16;2.03;;;0.87;;
78013;SDS011;67222;50.182;8.734;2023-03-19T17:43:43;1.90;;;1.10;;
78013;SDS011;67222;50.182;8.734;2023-03-19T17:46:11;1.30;;;0.90;;
78013;SDS011;67222;50.182;8.734;2023-03-19T17:48:40;3.15;;;1.38;;
78013;SDS011;67222;50.182;8.734;2023-03-19T17:51:05;1.40;;;0.80;;
78013;SDS011;67222;50.182;8.734;2023-03-19T17:53:31;2.17;;;1.05;;
78013;SDS011;67222;50.182;8.734;2023-03-19T17:55:56;2.73;;;1.20;;
78013;SDS011;67222;50.182;8.734;2023-03-19T17:58:21;2.03;;;1.02;;
78013;SDS011;67222;50.182;8.734;2023-03-19T18:00:47;3.38;;;1.25;;
78013;SDS011;67222;50.182;8.734;2023-03-19T18:03:15;3.00;;;1.30;;
78013;SDS011;67222;50.182;8.734;2023-03-19T18:05:42;3.03;;;1.30;;
78013;SDS011;67222;50.182;8.734;2023-03-19T18:08:15;2.05;;;1.35;;
78013;SDS011;67222;50.182;8.734;2023-03-19T18:10:42;4.22;;;1.35;;
78013;SDS011;67222;50.182;8.734;2023-03-19T18:13:07;2.57;;;1.20;;
78013;SDS011;67222;50.182;8.734;2023-03-19T18:15:33;3.20;;;1.50;;
78013;SDS011;67222;50.182;8.734;2023-03-19T18:18:01;2.97;;;1.50;;
78013;SDS011;67222;50.182;8.734;2023-03-19T18:20:31;3.63;;;1.63;;
78013;SDS011;67222;50.182;8.734;2023-03-19T18:22:59;2.50;;;1.30;;
78013;SDS011;67222;50.182;8.734;2023-03-19T18:25:25;2.90;;;1.60;;
78013;SDS011;67222;50.182;8.734;2023-03-19T18:27:51;3.65;;;1.55;;
78013;SDS011;67222;50.182;8.734;2023-03-19T18:30:18;4.28;;;1.88;;
78013;SDS011;67222;50.182;8.734;2023-03-19T18:32:46;3.58;;;2.00;;
78013;SDS011;67222;50.182;8.734;2023-03-19T18:35:16;3.42;;;1.80;;
78013;SDS011;67222;50.182;8.734;2023-03-19T18:37:43;4.57;;;1.75;;
78013;SDS011;67222;50.182;8.734;2023-03-19T18:40:14;4.30;;;1.90;;
78013;SDS011;67222;50.182;8.734;2023-03-19T18:42:42;4.65;;;2.40;;
78013;SDS011;67222;50.182;8.734;2023-03-19T18:45:08;5.55;;;3.65;;
78013;SDS011;67222;50.182;8.734;2023-03-19T18:47:35;5.57;;;4.05;;
78013;SDS011;67222;50.182;8.734;2023-03-19T18:50:01;6.63;;;4.22;;
78013;SDS011;67222;50.182;8.734;2023-03-19T18:52:26;5.25;;;3.65;;
78013;SDS011;67222;50.182;8.734;2023-03-19T18:54:52;4.70;;;3.60;;
78013;SDS011;67222;50.182;8.734;2023-03-19T18:57:17;4.85;;;3.72;;
78013;SDS011;67222;50.182;8.734;2023-03-19T18:59:42;6.37;;;3.30;;
78013;SDS011;67222;50.182;8.734;2023-03-19T19:02:17;5.00;;;3.30;;
78013;SDS011;67222;50.182;8.734;2023-03-19T19:04:55;3.97;;;2.63;;
78013;SDS011;67222;50.182;8.734;2023-03-19T19:07:20;5.47;;;2.63;;
78013;SDS011;67222;50.182;8.734;2023-03-19T19:09:46;4.35;;;2.60;;
78013;SDS011;67222;50.182;8.734;2023-03-19T19:12:12;3.77;;;2.30;;
78013;SDS011;67222;50.182;8.734;2023-03-19T19:19:33;5.97;;;2.08;;
78013;SDS011;67222;50.182;8.734;2023-03-19T19:21:58;4.97;;;2.10;;
78013;SDS011;67222;50.182;8.734;2023-03-19T19:24:23;5.67;;;3.23;;
78013;SDS011;67222;50.182;8.734;2023-03-19T19:26:49;9.40;;;3.87;;
78013;SDS011;67222;50.182;8.734;2023-03-19T19:31:51;25.83;;;12.07;;
78013;SDS011;67222;50.182;8.734;2023-03-19T19:34:16;24.35;;;12.70;;
78013;SDS011;67222;50.182;8.734;2023-03-19T19:36:42;19.73;;;11.03;;
78013;SDS011;67222;50.182;8.734;2023-03-19T19:39:07;17.20;;;9.40;;
78013;SDS011;67222;50.182;8.734;2023-03-19T19:41:33;14.15;;;7.97;;
78013;SDS011;67222;50.182;8.734;2023-03-19T19:43:58;11.33;;;6.80;;
78013;SDS011;67222;50.182;8.734;2023-03-19T19:46:27;10.85;;;5.75;;
78013;SDS011;67222;50.182;8.734;2023-03-19T19:48:54;9.50;;;5.22;;
78013;SDS011;67222;50.182;8.734;2023-03-19T19:51:20;12.02;;;6.25;;
78013;SDS011;67222;50.182;8.734;2023-03-19T19:53:47;11.05;;;5.93;;
78013;SDS011;67222;50.182;8.734;2023-03-19T19:56:14;8.68;;;4.03;;
78013;SDS011;67222;50.182;8.734;2023-03-19T20:01:12;7.70;;;3.88;;
78013;SDS011;67222;50.182;8.734;2023-03-19T20:03:40;6.10;;;3.30;;
78013;SDS011;67222;50.182;8.734;2023-03-19T20:06:05;7.90;;;4.20;;
78013;SDS011;67222;50.182;8.734;2023-03-19T20:08:30;5.47;;;3.53;;
78013;SDS011;67222;50.182;8.734;2023-03-19T20:10:56;6.07;;;3.95;;
78013;SDS011;67222;50.182;8.734;2023-03-19T20:13:26;7.60;;;3.60;;
78013;SDS011;67222;50.182;8.734;2023-03-19T20:15:54;7.57;;;4.63;;
78013;SDS011;67222;50.182;8.734;2023-03-19T20:18:22;6.38;;;4.05;;
78013;SDS011;67222;50.182;8.734;2023-03-19T20:20:48;8.27;;;3.97;;
78013;SDS011;67222;50.182;8.734;2023-03-19T20:23:15;6.95;;;3.83;;
78013;SDS011;67222;50.182;8.734;2023-03-19T20:25:42;5.38;;;3.78;;
78013;SDS011;67222;50.182;8.734;2023-03-19T20:28:11;5.68;;;3.67;;
78013;SDS011;67222;50.182;8.734;2023-03-19T20:30:44;5.53;;;4.03;;
78013;SDS011;67222;50.182;8.734;2023-03-19T20:33:10;6.25;;;4.18;;
78013;SDS011;67222;50.182;8.734;2023-03-19T20:35:36;5.72;;;3.88;;
78013;SDS011;67222;50.182;8.734;2023-03-19T20:38:03;6.00;;;3.67;;
78013;SDS011;67222;50.182;8.734;2023-03-19T20:40:30;5.85;;;3.55;;
78013;SDS011;67222;50.182;8.734;2023-03-19T20:42:58;6.95;;;4.00;;
78013;SDS011;67222;50.182;8.734;2023-03-19T20:45:26;5.53;;;3.90;;
78013;SDS011;67222;50.182;8.734;2023-03-19T20:47:58;4.80;;;3.80;;
78013;SDS011;67222;50.182;8.734;2023-03-19T20:50:24;4.85;;;3.33;;
78013;SDS011;67222;50.182;8.734;2023-03-19T20:52:52;6.05;;;3.92;;
78013;SDS011;67222;50.182;8.734;2023-03-19T20:55:19;7.13;;;3.42;;
78013;SDS011;67222;50.182;8.734;2023-03-19T20:57:47;6.07;;;3.58;;
78013;SDS011;67222;50.182;8.734;2023-03-19T21:00:36;5.40;;;3.28;;
78013;SDS011;67222;50.182;8.734;2023-03-19T21:03:00;6.45;;;3.70;;
78013;SDS011;67222;50.182;8.734;2023-03-19T21:05:33;5.88;;;3.40;;
78013;SDS011;67222;50.182;8.734;2023-03-19T21:08:01;6.20;;;4.05;;
78013;SDS011;67222;50.182;8.734;2023-03-19T21:10:39;6.10;;;3.60;;
78013;SDS011;67222;50.182;8.734;2023-03-19T21:13:13;6.65;;;3.80;;
78013;SDS011;67222;50.182;8.734;2023-03-19T21:15:46;6.30;;;3.75;;
78013;SDS011;67222;50.182;8.734;2023-03-19T21:18:13;5.15;;;3.90;;
78013;SDS011;67222;50.182;8.734;2023-03-19T21:20:39;6.50;;;4.00;;
78013;SDS011;67222;50.182;8.734;2023-03-19T21:25:34;6.30;;;3.97;;
78013;SDS011;67222;50.182;8.734;2023-03-19T21:28:01;5.80;;;3.90;;
78013;SDS011;67222;50.182;8.734;2023-03-19T21:30:30;6.82;;;4.07;;
78013;SDS011;67222;50.182;8.734;2023-03-19T21:32:57;5.28;;;3.50;;
78013;SDS011;67222;50.182;8.734;2023-03-19T21:35:24;6.38;;;3.55;;
78013;SDS011;67222;50.182;8.734;2023-03-19T21:37:50;6.55;;;3.80;;
78013;SDS011;67222;50.182;8.734;2023-03-19T21:40:18;6.13;;;4.10;;
78013;SDS011;67222;50.182;8.734;2023-03-19T21:42:46;6.90;;;4.07;;
78013;SDS011;67222;50.182;8.734;2023-03-19T21:45:19;5.68;;;4.30;;
78013;SDS011;67222;50.182;8.734;2023-03-19T21:47:51;6.75;;;3.88;;
78013;SDS011;67222;50.182;8.734;2023-03-19T21:50:25;5.97;;;3.90;;
78013;SDS011;67222;50.182;8.734;2023-03-19T21:52:50;6.17;;;3.70;;
78013;SDS011;67222;50.182;8.734;2023-03-19T21:55:16;6.03;;;3.83;;
78013;SDS011;67222;50.182;8.734;2023-03-19T21:57:43;5.43;;;3.75;;
78013;SDS011;67222;50.182;8.734;2023-03-19T22:00:09;5.82;;;3.95;;
78013;SDS011;67222;50.182;8.734;2023-03-19T22:02:40;4.93;;;3.38;;
78013;SDS011;67222;50.182;8.734;2023-03-19T22:05:20;5.53;;;3.33;;
78013;SDS011;67222;50.182;8.734;2023-03-19T22:07:48;5.75;;;3.03;;
78013;SDS011;67222;50.182;8.734;2023-03-19T22:10:14;5.38;;;3.28;;
78013;SDS011;67222;50.182;8.734;2023-03-19T22:12:40;5.43;;;3.25;;
78013;SDS011;67222;50.182;8.734;2023-03-19T22:15:29;4.40;;;3.10;;
78013;SDS011;67222;50.182;8.734;2023-03-19T22:18:02;5.68;;;3.40;;
78013;SDS011;67222;50.182;8.734;2023-03-19T22:20:28;5.43;;;3.20;;
78013;SDS011;67222;50.182;8.734;2023-03-19T22:22:54;4.60;;;2.87;;
78013;SDS011;67222;50.182;8.734;2023-03-19T22:25:20;7.65;;;2.97;;
78013;SDS011;67222;50.182;8.734;2023-03-19T22:27:47;4.70;;;2.85;;
78013;SDS011;67222;50.182;8.734;2023-03-19T22:30:35;5.68;;;3.30;;
78013;SDS011;67222;50.182;8.734;2023-03-19T22:33:04;5.85;;;3.13;;
78013;SDS011;67222;50.182;8.734;2023-03-19T22:35:38;5.72;;;2.85;;
78013;SDS011;67222;50.182;8.734;2023-03-19T22:38:03;5.40;;;3.00;;
78013;SDS011;67222;50.182;8.734;2023-03-19T22:40:28;5.10;;;3.10;;
78013;SDS011;67222;50.182;8.734;2023-03-19T22:42:53;4.80;;;2.87;;
78013;SDS011;67222;50.182;8.734;2023-03-19T22:45:21;3.97;;;2.50;;
78013;SDS011;67222;50.182;8.734;2023-03-19T22:47:49;4.82;;;3.10;;
78013;SDS011;67222;50.182;8.734;2023-03-19T22:50:16;5.43;;;2.90;;
78013;SDS011;67222;50.182;8.734;2023-03-19T22:52:44;5.15;;;3.13;;
78013;SDS011;67222;50.182;8.734;2023-03-19T22:55:09;4.60;;;2.92;;
78013;SDS011;67222;50.182;8.734;2023-03-19T22:57:35;4.67;;;3.20;;
78013;SDS011;67222;50.182;8.734;2023-03-19T23:00:00;4.40;;;3.13;;
